Time,TemperatureF,DewpointF,PressureIn,WindDirection,WindDirectionDegrees,WindSpeedMPH,WindSpeedGustMPH,Humidity,HourlyPrecipIn,Conditions,Clouds,dailyrainin,SoftwareType,DateUTC
2013-03-18 00:01:00,-2.3,-7.4,30.18,NW,309,0.0,0.0,78,0.00,,,0.00,LWC V2.00 B2112,2013-03-18 08:01:00,
2013-03-18 00:06:00,-2.6,-7.7,30.18,NW,308,0.0,0.0,78,0.00,,,0.00,LWC V2.00 B2112,2013-03-18 08:06:00,
2013-03-18 00:11:00,-2.9,-8.0,30.18,NW,309,0.0,0.0,78,0.00,,,0.00,LWC V2.00 B2112,2013-03-18 08:11:00,
2013-03-18 00:16:00,-3.2,-8.3,30.19,NW,309,0.0,0.0,78,0.00,,,0.00,LWC V2.00 B2112,2013-03-18 08:16:00,
2013-03-18 00:21:00,-3.4,-8.5,30.19,NW,308,0.0,0.0,78,0.00,,,0.00,LWC V2.00 B2112,2013-03-18 08:21:00,
2013-03-18 00:26:00,-3.5,-8.3,30.18,NW,308,0.0,0.0,79,0.00,,,0.00,LWC V2.00 B2112,2013-03-18 08:26:00,
2013-03-18 00:31:00,-3.7,-8.5,30.19,NW,309,0.0,0.0,79,0.00,,,0.00,LWC V2.00 B2112,2013-03-18 08:31:00,
2013-03-18 00:36:00,-3.7,-8.5,30.18,NW,309,0.0,0.0,79,0.00,,,0.00,LWC V2.00 B2112,2013-03-18 08:36:00,
2013-03-18 00:41:00,-3.7,-8.3,30.18,NW,309,0.0,0.0,80,0.00,,,0.00,LWC V2.00 B2112,2013-03-18 08:41:00,
2013-03-18 00:46:00,-4.0,-8.6,30.18,NW,309,0.0,0.0,80,0.00,,,0.00,LWC V2.00 B2112,2013-03-18 08:46:00,
2013-03-18 00:51:00,-4.2,-8.8,30.18,NW,309,0.0,0.0,80,0.00,,,0.00,LWC V2.00 B2112,2013-03-18 08:51:00,
2013-03-18 00:56:00,-4.4,-9.0,30.18,NW,309,0.0,0.0,80,0.00,,,0.00,LWC V2.00 B2112,2013-03-18 08:56:00,
2013-03-18 01:01:00,-4.6,-9.2,30.18,NW,308,0.0,0.0,80,0.00,,,0.00,LWC V2.00 B2112,2013-03-18 09:01:00,
2013-03-18 01:06:00,-4.6,-9.2,30.18,NW,309,0.0,0.0,80,0.00,,,0.00,LWC V2.00 B2112,2013-03-18 09:06:00,
2013-03-18 01:11:00,-4.7,-9.3,30.18,NW,308,0.0,0.0,80,0.00,,,0.00,LWC V2.00 B2112,2013-03-18 09:11:00,
2013-03-18 01:16:00,-4.8,-9.4,30.18,NW,309,0.0,0.0,80,0.00,,,0.00,LWC V2.00 B2112,2013-03-18 09:16:00,
2013-03-18 01:21:00,-4.6,-8.9,30.18,NW,309,0.0,0.0,81,0.00,,,0.00,LWC V2.00 B2112,2013-03-18 09:21:00,
2013-03-18 01:26:00,-4.6,-8.9,30.18,NW,308,0.0,0.0,81,0.00,,,0.00,LWC V2.00 B2112,2013-03-18 09:26:00,
2013-03-18 01:31:00,-4.8,-9.4,30.18,NW,308,0.0,0.0,80,0.00,,,0.00,LWC V2.00 B2112,2013-03-18 09:31:00,
2013-03-18 01:36:00,-5.0,-9.6,30.18,NW,309,0.0,0.0,80,0.00,,,0.00,LWC V2.00 B2112,2013-03-18 09:36:00,
2013-03-18 01:41:00,-5.2,-9.5,30.17,NW,309,0.0,0.0,81,0.00,,,0.00,LWC V2.00 B2112,2013-03-18 09:41:00,
2013-03-18 01:46:00,-5.4,-9.7,30.17,NW,308,0.0,0.0,81,0.00,,,0.00,LWC V2.00 B2112,2013-03-18 09:46:00,
2013-03-18 01:51:00,-5.5,-9.8,30.17,NW,308,0.0,0.0,81,0.00,,,0.00,LWC V2.00 B2112,2013-03-18 09:51:00,
2013-03-18 01:56:00,-5.6,-9.9,30.17,NW,308,0.0,0.0,81,0.00,,,0.00,LWC V2.00 B2112,2013-03-18 09:56:00,
2013-03-18 02:01:00,-5.7,-10.0,30.17,NW,309,0.0,0.0,81,0.00,,,0.00,LWC V2.00 B2112,2013-03-18 10:01:00,
2013-03-18 02:06:00,-5.8,-10.1,30.17,NW,308,0.0,0.0,81,0.00,,,0.00,LWC V2.00 B2112,2013-03-18 10:06:00,
2013-03-18 02:11:00,-5.8,-10.1,30.17,NW,308,0.0,0.0,81,0.00,,,0.00,LWC V2.00 B2112,2013-03-18 10:11:00,
2013-03-18 02:16:00,-5.8,-10.1,30.17,NW,309,0.0,0.0,81,0.00,,,0.00,LWC V2.00 B2112,2013-03-18 10:16:00,
2013-03-18 02:21:00,-5.8,-10.1,30.17,NW,309,0.0,0.0,81,0.00,,,0.00,LWC V2.00 B2112,2013-03-18 10:21:00,
2013-03-18 02:26:00,-5.8,-10.1,30.17,NW,309,0.0,0.0,81,0.00,,,0.00,LWC V2.00 B2112,2013-03-18 10:26:00,
2013-03-18 02:31:00,-5.8,-10.1,30.16,NW,308,0.0,0.0,81,0.00,,,0.00,LWC V2.00 B2112,2013-03-18 10:31:00,
2013-03-18 02:36:00,-5.9,-9.9,30.16,NW,309,0.0,0.0,82,0.00,,,0.00,LWC V2.00 B2112,2013-03-18 10:36:00,
2013-03-18 02:41:00,-5.9,-9.9,30.16,NW,309,0.0,0.0,82,0.00,,,0.00,LWC V2.00 B2112,2013-03-18 10:41:00,
2013-03-18 02:46:00,-5.9,-9.9,30.16,NW,309,0.0,0.0,82,0.00,,,0.00,LWC V2.00 B2112,2013-03-18 10:46:00,
2013-03-18 02:51:00,-5.9,-9.9,30.16,NW,308,0.0,0.0,82,0.00,,,0.00,LWC V2.00 B2112,2013-03-18 10:51:00,
2013-03-18 02:56:00,-5.9,-9.9,30.16,NW,309,0.0,0.0,82,0.00,,,0.00,LWC V2.00 B2112,2013-03-18 10:56:00,
2013-03-18 03:01:00,-5.7,-9.7,30.16,NW,309,0.0,0.0,82,0.00,,,0.00,LWC V2.00 B2112,2013-03-18 11:01:00,
2013-03-18 03:06:00,-5.7,-9.7,30.16,NW,308,0.0,0.0,82,0.00,,,0.00,LWC V2.00 B2112,2013-03-18 11:06:00,
2013-03-18 03:11:00,-5.8,-9.8,30.16,NW,308,0.0,0.0,82,0.00,,,0.00,LWC V2.00 B2112,2013-03-18 11:11:00,
2013-03-18 03:16:00,-5.8,-9.8,30.16,NW,309,0.0,0.0,82,0.00,,,0.00,LWC V2.00 B2112,2013-03-18 11:16:00,
2013-03-18 03:21:00,-5.9,-9.9,30.16,NW,309,0.0,0.0,82,0.00,,,0.00,LWC V2.00 B2112,2013-03-18 11:21:00,
2013-03-18 03:26:00,-6.0,-10.0,30.16,NW,309,0.0,0.0,82,0.00,,,0.00,LWC V2.00 B2112,2013-03-18 11:26:00,
2013-03-18 03:31:00,-6.1,-10.1,30.16,NW,308,0.0,0.0,82,0.00,,,0.00,LWC V2.00 B2112,2013-03-18 11:31:00,
2013-03-18 03:36:00,-6.3,-10.3,30.15,NW,309,0.0,0.0,82,0.00,,,0.00,LWC V2.00 B2112,2013-03-18 11:36:00,
2013-03-18 03:41:00,-6.5,-10.5,30.15,NW,309,0.0,0.0,82,0.00,,,0.00,LWC V2.00 B2112,2013-03-18 11:41:00,
2013-03-18 03:46:00,-6.5,-10.5,30.15,NW,309,0.0,0.0,82,0.00,,,0.00,LWC V2.00 B2112,2013-03-18 11:46:00,
2013-03-18 03:51:00,-6.6,-10.6,30.15,NW,308,0.0,0.0,82,0.00,,,0.00,LWC V2.00 B2112,2013-03-18 11:51:00,
2013-03-18 03:56:00,-6.8,-10.8,30.15,NW,309,0.0,0.0,82,0.00,,,0.00,LWC V2.00 B2112,2013-03-18 11:56:00,
2013-03-18 04:01:00,-7.0,-11.0,30.15,NW,309,0.0,0.0,82,0.00,,,0.00,LWC V2.00 B2112,2013-03-18 12:01:00,
2013-03-18 04:06:00,-7.0,-11.0,30.15,NW,309,0.0,0.0,82,0.00,,,0.00,LWC V2.00 B2112,2013-03-18 12:06:00,
2013-03-18 04:11:00,-6.9,-10.9,30.15,NW,308,0.0,0.0,82,0.00,,,0.00,LWC V2.00 B2112,2013-03-18 12:11:00,
2013-03-18 04:16:00,-6.9,-10.9,30.15,NW,309,0.0,0.0,82,0.00,,,0.00,LWC V2.00 B2112,2013-03-18 12:16:00,
2013-03-18 04:21:00,-6.9,-10.9,30.14,NW,308,0.0,0.0,82,0.00,,,0.00,LWC V2.00 B2112,2013-03-18 12:21:00,
2013-03-18 04:27:00,-7.1,-11.1,30.14,NW,309,0.0,0.0,82,0.00,,,0.00,LWC V2.00 B2112,2013-03-18 12:27:00,
2013-03-18 04:32:00,-7.2,-11.2,30.14,NW,308,0.0,0.0,82,0.00,,,0.00,LWC V2.00 B2112,2013-03-18 12:32:00,
2013-03-18 04:37:00,-7.0,-11.0,30.14,NW,309,0.0,0.0,82,0.00,,,0.00,LWC V2.00 B2112,2013-03-18 12:37:00,
2013-03-18 04:41:00,-6.9,-10.9,30.14,NW,309,0.0,0.0,82,0.00,,,0.00,LWC V2.00 B2112,2013-03-18 12:41:00,
2013-03-18 04:46:00,-6.8,-10.8,30.14,NW,309,0.0,0.0,82,0.00,,,0.00,LWC V2.00 B2112,2013-03-18 12:46:00,
2013-03-18 04:51:00,-6.7,-10.7,30.14,NW,308,0.0,0.0,82,0.00,,,0.00,LWC V2.00 B2112,2013-03-18 12:51:00,
2013-03-18 04:56:00,-6.5,-10.5,30.14,NW,309,0.0,0.0,82,0.00,,,0.00,LWC V2.00 B2112,2013-03-18 12:56:00,
2013-03-18 05:01:00,-6.5,-10.5,30.14,NW,309,0.0,0.0,82,0.00,,,0.00,LWC V2.00 B2112,2013-03-18 13:01:00,
2013-03-18 05:06:00,-6.4,-10.4,30.14,NW,309,0.0,0.0,82,0.00,,,0.00,LWC V2.00 B2112,2013-03-18 13:06:00,
2013-03-18 05:11:00,-6.2,-10.2,30.13,NW,309,0.0,0.0,82,0.00,,,0.00,LWC V2.00 B2112,2013-03-18 13:11:00,
2013-03-18 05:16:00,-6.1,-10.1,30.13,NW,309,0.0,0.0,82,0.00,,,0.00,LWC V2.00 B2112,2013-03-18 13:16:00,
2013-03-18 05:21:00,-6.1,-10.1,30.13,NW,309,0.0,0.0,82,0.00,,,0.00,LWC V2.00 B2112,2013-03-18 13:21:00,
2013-03-18 05:26:00,-6.2,-10.2,30.13,NW,308,0.0,0.0,82,0.00,,,0.00,LWC V2.00 B2112,2013-03-18 13:26:00,
2013-03-18 05:31:00,-6.2,-10.2,30.13,NW,308,0.0,0.0,82,0.00,,,0.00,LWC V2.00 B2112,2013-03-18 13:31:00,
2013-03-18 05:36:00,-6.1,-10.1,30.13,NW,309,0.0,0.0,82,0.00,,,0.00,LWC V2.00 B2112,2013-03-18 13:36:00,
2013-03-18 05:41:00,-6.0,-10.0,30.13,NW,309,0.0,0.0,82,0.00,,,0.00,LWC V2.00 B2112,2013-03-18 13:41:00,
2013-03-18 05:47:00,-5.9,-9.9,30.13,NW,308,0.0,0.0,82,0.00,,,0.00,LWC V2.00 B2112,2013-03-18 13:47:00,
2013-03-18 05:52:00,-5.8,-9.8,30.13,NW,309,0.0,0.0,82,0.00,,,0.00,LWC V2.00 B2112,2013-03-18 13:52:00,
2013-03-18 05:57:00,-5.8,-9.8,30.12,NW,309,0.0,0.0,82,0.00,,,0.00,LWC V2.00 B2112,2013-03-18 13:57:00,
2013-03-18 06:01:00,-5.7,-9.7,30.13,NW,308,0.0,0.0,82,0.00,,,0.00,LWC V2.00 B2112,2013-03-18 14:01:00,
2013-03-18 06:06:00,-5.7,-9.7,30.12,NW,308,0.0,0.0,82,0.00,,,0.00,LWC V2.00 B2112,2013-03-18 14:06:00,
2013-03-18 06:11:00,-5.7,-9.7,30.12,NW,309,0.0,0.0,82,0.00,,,0.00,LWC V2.00 B2112,2013-03-18 14:11:00,
2013-03-18 06:16:00,-5.7,-9.7,30.12,NW,309,0.0,0.0,82,0.00,,,0.00,LWC V2.00 B2112,2013-03-18 14:16:00,
2013-03-18 06:21:00,-5.7,-9.7,30.12,NW,309,0.0,0.0,82,0.00,,,0.00,LWC V2.00 B2112,2013-03-18 14:21:00,
2013-03-18 06:26:00,-5.6,-9.6,30.12,NW,309,0.0,0.0,82,0.00,,,0.00,LWC V2.00 B2112,2013-03-18 14:26:00,
2013-03-18 06:31:00,-5.6,-9.6,30.12,NW,308,0.0,0.0,82,0.00,,,0.00,LWC V2.00 B2112,2013-03-18 14:31:00,
2013-03-18 06:36:00,-5.6,-9.6,30.12,NW,309,0.0,0.0,82,0.00,,,0.00,LWC V2.00 B2112,2013-03-18 14:36:00,
2013-03-18 06:41:00,-5.9,-9.9,30.12,NW,309,0.0,0.0,82,0.00,,,0.00,LWC V2.00 B2112,2013-03-18 14:41:00,
2013-03-18 06:46:00,-6.1,-10.1,30.12,NW,309,0.0,0.0,82,0.00,,,0.00,LWC V2.00 B2112,2013-03-18 14:46:00,
2013-03-18 06:51:00,-6.3,-10.3,30.11,NW,308,0.0,0.0,82,0.00,,,0.00,LWC V2.00 B2112,2013-03-18 14:51:00,
2013-03-18 06:56:00,-6.6,-10.6,30.12,NW,309,0.0,0.0,82,0.00,,,0.00,LWC V2.00 B2112,2013-03-18 14:56:00,
2013-03-18 07:01:00,-6.9,-10.9,30.12,NW,309,0.0,0.0,82,0.00,,,0.00,LWC V2.00 B2112,2013-03-18 15:01:00,
2013-03-18 07:06:00,-7.2,-11.2,30.12,NW,309,0.0,0.0,82,0.00,,,0.00,LWC V2.00 B2112,2013-03-18 15:06:00,
2013-03-18 07:11:00,-7.4,-11.4,30.11,NW,308,0.0,0.0,82,0.00,,,0.00,LWC V2.00 B2112,2013-03-18 15:11:00,
2013-03-18 07:16:00,-7.5,-11.5,30.11,NW,308,0.0,0.0,82,0.00,,,0.00,LWC V2.00 B2112,2013-03-18 15:16:00,
2013-03-18 07:21:00,-7.4,-11.4,30.11,NW,309,0.0,0.0,82,0.00,,,0.00,LWC V2.00 B2112,2013-03-18 15:21:00,
2013-03-18 07:26:00,-7.3,-11.3,30.11,NW,309,0.0,0.0,82,0.00,,,0.00,LWC V2.00 B2112,2013-03-18 15:26:00,
2013-03-18 07:31:00,-7.4,-11.4,30.11,NW,308,0.0,0.0,82,0.00,,,0.00,LWC V2.00 B2112,2013-03-18 15:31:00,
2013-03-18 07:36:00,-7.4,-11.4,30.11,NW,308,0.0,0.0,82,0.00,,,0.00,LWC V2.00 B2112,2013-03-18 15:36:00,
2013-03-18 07:41:00,-7.3,-11.1,30.11,NW,309,0.0,0.0,83,0.00,,,0.00,LWC V2.00 B2112,2013-03-18 15:41:00,
2013-03-18 07:47:00,-7.2,-11.0,30.11,NW,309,0.0,0.0,83,0.00,,,0.00,LWC V2.00 B2112,2013-03-18 15:47:00,
2013-03-18 07:52:00,-7.0,-10.8,30.11,NW,308,0.0,0.0,83,0.00,,,0.00,LWC V2.00 B2112,2013-03-18 15:52:00,
2013-03-18 07:57:00,-7.1,-10.9,30.11,NW,308,0.0,0.0,83,0.00,,,0.00,LWC V2.00 B2112,2013-03-18 15:57:00,
2013-03-18 08:02:00,-7.4,-11.4,30.11,NW,309,0.0,0.0,82,0.00,,,0.00,LWC V2.00 B2112,2013-03-18 16:02:00,
2013-03-18 08:07:00,-7.8,-11.8,30.11,NW,309,0.0,0.0,82,0.00,,,0.00,LWC V2.00 B2112,2013-03-18 16:07:00,
2013-03-18 08:12:00,-7.9,-11.9,30.11,NW,308,0.0,0.0,82,0.00,,,0.00,LWC V2.00 B2112,2013-03-18 16:12:00,
2013-03-18 08:17:00,-7.9,-11.9,30.11,NW,309,0.0,0.0,82,0.00,,,0.00,LWC V2.00 B2112,2013-03-18 16:17:00,
2013-03-18 08:22:00,-7.9,-11.9,30.11,NW,309,0.0,0.0,82,0.00,,,0.00,LWC V2.00 B2112,2013-03-18 16:22:00,
2013-03-18 08:27:00,-7.6,-11.6,30.11,NW,308,0.0,0.0,82,0.00,,,0.00,LWC V2.00 B2112,2013-03-18 16:27:00,
2013-03-18 08:32:00,-7.6,-11.6,30.11,NW,308,0.0,0.0,82,0.00,,,0.00,LWC V2.00 B2112,2013-03-18 16:32:00,
2013-03-18 08:37:00,-7.5,-11.5,30.10,NW,309,0.0,0.0,82,0.00,,,0.00,LWC V2.00 B2112,2013-03-18 16:37:00,
2013-03-18 08:42:00,-7.1,-11.1,30.11,NW,309,0.0,0.0,82,0.00,,,0.00,LWC V2.00 B2112,2013-03-18 16:42:00,
2013-03-18 08:47:00,-6.8,-10.8,30.10,NW,308,0.0,0.0,82,0.00,,,0.00,LWC V2.00 B2112,2013-03-18 16:47:00,
2013-03-18 08:52:00,-6.5,-10.5,30.10,NW,309,0.0,0.0,82,0.00,,,0.00,LWC V2.00 B2112,2013-03-18 16:52:00,
2013-03-18 08:57:00,-6.5,-10.5,30.10,NW,309,0.0,0.0,82,0.00,,,0.00,LWC V2.00 B2112,2013-03-18 16:57:00,
2013-03-18 09:02:00,-6.4,-10.4,30.10,NW,309,0.0,0.0,82,0.00,,,0.00,LWC V2.00 B2112,2013-03-18 17:02:00,
2013-03-18 09:07:00,-6.3,-10.3,30.10,NW,308,0.0,0.0,82,0.00,,,0.00,LWC V2.00 B2112,2013-03-18 17:07:00,
2013-03-18 09:12:00,-6.2,-10.2,30.10,NW,309,0.0,0.0,82,0.00,,,0.00,LWC V2.00 B2112,2013-03-18 17:12:00,
2013-03-18 09:17:00,-6.0,-10.0,30.10,NW,309,0.0,0.0,82,0.00,,,0.00,LWC V2.00 B2112,2013-03-18 17:17:00,
2013-03-18 09:22:00,-5.7,-9.7,30.10,NW,309,0.0,0.0,82,0.00,,,0.00,LWC V2.00 B2112,2013-03-18 17:22:00,
2013-03-18 09:27:00,-5.0,-9.1,30.10,NW,308,0.0,0.0,82,0.00,,,0.00,LWC V2.00 B2112,2013-03-18 17:27:00,
2013-03-18 09:32:00,-4.3,-8.4,30.09,NW,309,0.0,0.0,82,0.00,,,0.00,LWC V2.00 B2112,2013-03-18 17:32:00,
2013-03-18 09:37:00,-3.4,-7.5,30.10,NW,309,0.0,0.0,82,0.00,,,0.00,LWC V2.00 B2112,2013-03-18 17:37:00,
2013-03-18 09:42:00,-2.8,-6.9,30.10,NW,309,0.0,0.0,82,0.00,,,0.00,LWC V2.00 B2112,2013-03-18 17:42:00,
2013-03-18 09:47:00,-2.2,-6.3,30.10,NW,308,0.0,0.0,82,0.00,,,0.00,LWC V2.00 B2112,2013-03-18 17:47:00,
2013-03-18 09:52:00,-0.9,-5.0,30.09,NW,309,0.0,0.0,82,0.00,,,0.00,LWC V2.00 B2112,2013-03-18 17:52:00,
2013-03-18 09:57:00,0.1,-4.3,30.09,NW,309,0.0,0.0,81,0.00,,,0.00,LWC V2.00 B2112,2013-03-18 17:57:00,
2013-03-18 10:02:00,0.9,-3.5,30.09,NW,308,0.0,0.0,81,0.00,,,0.00,LWC V2.00 B2112,2013-03-18 18:02:00,
2013-03-18 10:07:00,1.8,-2.9,30.09,NW,308,0.0,0.0,80,0.00,,,0.00,LWC V2.00 B2112,2013-03-18 18:07:00,
2013-03-18 10:12:00,2.4,-2.6,30.09,NW,309,0.0,0.0,79,0.00,,,0.00,LWC V2.00 B2112,2013-03-18 18:12:00,
2013-03-18 10:17:00,2.8,-2.5,30.09,NW,309,0.0,0.0,78,0.00,,,0.00,LWC V2.00 B2112,2013-03-18 18:17:00,
2013-03-18 10:21:00,3.7,-1.9,30.09,NW,309,0.0,0.0,77,0.00,,,0.00,LWC V2.00 B2112,2013-03-18 18:21:00,
2013-03-18 10:27:00,4.8,-1.1,30.09,NW,309,0.0,0.0,76,0.00,,,0.00,LWC V2.00 B2112,2013-03-18 18:27:00,
2013-03-18 10:32:00,5.6,-0.6,30.09,NW,309,0.0,1.0,75,0.00,,,0.00,LWC V2.00 B2112,2013-03-18 18:32:00,
2013-03-18 10:37:00,5.3,-1.4,30.09,NW,309,1.0,2.0,73,0.00,,,0.00,LWC V2.00 B2112,2013-03-18 18:37:00,
2013-03-18 10:42:00,4.8,-1.9,30.09,NW,308,1.0,2.0,73,0.00,,,0.00,LWC V2.00 B2112,2013-03-18 18:42:00,
2013-03-18 10:47:00,4.7,-2.0,30.09,WNW,300,1.0,2.0,73,0.00,,,0.00,LWC V2.00 B2112,2013-03-18 18:47:00,
2013-03-18 10:52:00,4.9,-1.8,30.09,WNW,300,1.0,2.0,73,0.00,,,0.00,LWC V2.00 B2112,2013-03-18 18:52:00,
2013-03-18 10:57:00,5.1,-1.6,30.09,WNW,300,0.0,1.0,73,0.00,,,0.00,LWC V2.00 B2112,2013-03-18 18:57:00,
2013-03-18 11:02:00,6.1,-0.7,30.09,WNW,300,0.0,0.0,73,0.00,,,0.00,LWC V2.00 B2112,2013-03-18 19:02:00,
2013-03-18 11:07:00,6.9,0.1,30.09,WNW,300,0.0,0.0,73,0.00,,,0.00,LWC V2.00 B2112,2013-03-18 19:07:00,
2013-03-18 11:12:00,7.7,0.3,30.09,WNW,300,0.0,0.0,71,0.00,,,0.00,LWC V2.00 B2112,2013-03-18 19:12:00,
2013-03-18 11:17:00,7.9,0.2,30.08,WNW,300,0.0,0.0,70,0.00,,,0.00,LWC V2.00 B2112,2013-03-18 19:17:00,
2013-03-18 11:22:00,8.3,0.3,30.08,WNW,300,0.0,0.0,69,0.00,,,0.00,LWC V2.00 B2112,2013-03-18 19:22:00,
2013-03-18 11:27:00,8.6,0.2,30.08,WNW,300,0.0,0.0,68,0.00,,,0.00,LWC V2.00 B2112,2013-03-18 19:27:00,
2013-03-18 11:32:00,8.9,0.5,30.08,WNW,300,0.0,0.0,68,0.00,,,0.00,LWC V2.00 B2112,2013-03-18 19:32:00,
2013-03-18 11:37:00,8.9,0.2,30.07,WNW,300,0.0,0.0,67,0.00,,,0.00,LWC V2.00 B2112,2013-03-18 19:37:00,
2013-03-18 11:42:00,9.2,0.2,30.08,WNW,300,0.0,0.0,66,0.00,,,0.00,LWC V2.00 B2112,2013-03-18 19:42:00,
2013-03-18 11:47:00,9.8,0.8,30.08,WNW,300,0.0,0.0,66,0.00,,,0.00,LWC V2.00 B2112,2013-03-18 19:47:00,
2013-03-18 11:52:00,10.3,0.9,30.07,WNW,300,1.0,2.0,65,0.00,,,0.00,LWC V2.00 B2112,2013-03-18 19:52:00,
2013-03-18 11:57:00,10.9,1.1,30.07,WNW,300,0.0,3.0,64,0.00,,,0.00,LWC V2.00 B2112,2013-03-18 19:57:00,
2013-03-18 12:02:00,10.6,0.5,30.07,WNW,300,0.0,2.0,63,0.00,,,0.00,LWC V2.00 B2112,2013-03-18 20:02:00,
2013-03-18 12:07:00,10.3,0.2,30.07,WNW,300,1.0,2.0,63,0.00,,,0.00,LWC V2.00 B2112,2013-03-18 20:07:00,
2013-03-18 12:12:00,10.2,0.5,30.07,WNW,300,2.0,2.0,64,0.00,,,0.00,LWC V2.00 B2112,2013-03-18 20:12:00,
2013-03-18 12:17:00,10.5,0.8,30.07,North,356,1.0,2.0,64,0.00,,,0.00,LWC V2.00 B2112,2013-03-18 20:17:00,
2013-03-18 12:22:00,10.3,0.6,30.07,NW,316,0.0,1.0,64,0.00,,,0.00,LWC V2.00 B2112,2013-03-18 20:22:00,
2013-03-18 12:27:00,10.2,0.5,30.07,NW,308,0.0,1.0,64,0.00,,,0.00,LWC V2.00 B2112,2013-03-18 20:27:00,
2013-03-18 12:32:00,10.4,0.7,30.06,NW,308,0.0,0.0,64,0.00,,,0.00,LWC V2.00 B2112,2013-03-18 20:32:00,
2013-03-18 12:37:00,10.5,0.8,30.06,NW,308,0.0,1.0,64,0.00,,,0.00,LWC V2.00 B2112,2013-03-18 20:37:00,
2013-03-18 12:42:00,11.0,1.2,30.06,NW,308,0.0,0.0,64,0.00,,,0.00,LWC V2.00 B2112,2013-03-18 20:42:00,
2013-03-18 12:47:00,11.4,1.3,30.06,NW,309,0.0,1.0,63,0.00,,,0.00,LWC V2.00 B2112,2013-03-18 20:47:00,
2013-03-18 12:52:00,11.9,1.8,30.06,NW,309,0.0,1.0,63,0.00,,,0.00,LWC V2.00 B2112,2013-03-18 20:52:00,
2013-03-18 12:57:00,12.4,1.9,30.07,NW,309,0.0,2.0,62,0.00,,,0.00,LWC V2.00 B2112,2013-03-18 20:57:00,
2013-03-18 13:02:00,12.2,3.7,30.06,North,1,0.0,0.0,68,0.00,,,0.00,LWC V2.00 B2112,2013-03-18 21:02:00,
2013-03-18 13:07:00,12.6,2.1,30.06,North,1,1.0,2.0,62,0.00,,,0.00,LWC V2.00 B2112,2013-03-18 21:07:00,
2013-03-18 13:12:00,12.4,1.5,30.06,WNW,285,2.0,3.0,61,0.00,,,0.00,LWC V2.00 B2112,2013-03-18 21:12:00,
2013-03-18 13:17:00,12.1,1.3,30.06,WNW,285,0.0,0.0,61,0.00,,,0.00,LWC V2.00 B2112,2013-03-18 21:17:00,
2013-03-18 13:22:00,12.3,1.8,30.06,WNW,283,2.0,2.0,62,0.00,,,0.00,LWC V2.00 B2112,2013-03-18 21:22:00,
2013-03-18 13:27:00,12.3,1.5,30.06,WNW,285,0.0,1.0,61,0.00,,,0.00,LWC V2.00 B2112,2013-03-18 21:27:00,
2013-03-18 13:32:00,12.8,1.9,30.06,WNW,285,0.0,0.0,61,0.00,,,0.00,LWC V2.00 B2112,2013-03-18 21:32:00,
2013-03-18 13:37:00,13.2,2.3,30.06,WNW,285,0.0,1.0,61,0.00,,,0.00,LWC V2.00 B2112,2013-03-18 21:37:00,
2013-03-18 13:42:00,13.1,1.9,30.06,WNW,285,0.0,2.0,60,0.00,,,0.00,LWC V2.00 B2112,2013-03-18 21:42:00,
2013-03-18 13:47:00,13.1,1.9,30.06,WNW,285,0.0,2.0,60,0.00,,,0.00,LWC V2.00 B2112,2013-03-18 21:47:00,
2013-03-18 13:52:00,13.0,1.8,30.06,WNW,285,0.0,2.0,60,0.00,,,0.00,LWC V2.00 B2112,2013-03-18 21:52:00,
2013-03-18 13:57:00,13.0,1.8,30.06,WNW,283,0.0,1.0,60,0.00,,,0.00,LWC V2.00 B2112,2013-03-18 21:57:00,
2013-03-18 14:02:00,13.0,2.1,30.05,WNW,283,0.0,0.0,61,0.00,,,0.00,LWC V2.00 B2112,2013-03-18 22:02:00,
2013-03-18 14:07:00,13.4,2.5,30.06,WNW,283,0.0,2.0,61,0.00,,,0.00,LWC V2.00 B2112,2013-03-18 22:07:00,
2013-03-18 14:12:00,13.6,2.3,30.06,North,1,2.0,3.0,60,0.00,,,0.00,LWC V2.00 B2112,2013-03-18 22:12:00,
2013-03-18 14:17:00,14.3,3.0,30.05,NNE,12,0.0,1.0,60,0.00,,,0.00,LWC V2.00 B2112,2013-03-18 22:17:00,
2013-03-18 14:22:00,14.9,2.8,30.05,NNW,327,0.0,2.0,58,0.00,,,0.00,LWC V2.00 B2112,2013-03-18 22:22:00,
2013-03-18 14:27:00,14.9,2.5,30.05,NW,304,1.0,3.0,57,0.00,,,0.00,LWC V2.00 B2112,2013-03-18 22:27:00,
2013-03-18 14:32:00,14.6,2.2,30.05,NW,304,0.0,2.0,57,0.00,,,0.00,LWC V2.00 B2112,2013-03-18 22:32:00,
2013-03-18 14:37:00,14.8,2.4,30.05,NNE,12,0.0,1.0,57,0.00,,,0.00,LWC V2.00 B2112,2013-03-18 22:37:00,
2013-03-18 14:42:00,14.8,2.0,30.05,WNW,301,0.0,2.0,56,0.00,,,0.00,LWC V2.00 B2112,2013-03-18 22:42:00,
2013-03-18 14:47:00,14.8,2.0,30.05,WNW,301,0.0,0.0,56,0.00,,,0.00,LWC V2.00 B2112,2013-03-18 22:47:00,
2013-03-18 14:52:00,15.1,2.3,30.05,WNW,301,1.0,2.0,56,0.00,,,0.00,LWC V2.00 B2112,2013-03-18 22:52:00,
2013-03-18 14:57:00,15.4,2.5,30.05,WNW,286,0.0,2.0,56,0.00,,,0.00,LWC V2.00 B2112,2013-03-18 22:57:00,
2013-03-18 15:02:00,15.3,2.1,30.05,WNW,285,2.0,3.0,55,0.00,,,0.00,LWC V2.00 B2112,2013-03-18 23:02:00,
2013-03-18 15:07:00,15.3,2.1,30.05,WNW,300,0.0,0.0,55,0.00,,,0.00,LWC V2.00 B2112,2013-03-18 23:07:00,
2013-03-18 15:12:00,15.5,2.3,30.04,North,354,0.0,0.0,55,0.00,,,0.00,LWC V2.00 B2112,2013-03-18 23:12:00,
2013-03-18 15:16:00,16.9,3.6,30.04,North,356,0.0,0.0,55,0.00,,,0.00,LWC V2.00 B2112,2013-03-18 23:16:00,
2013-03-18 15:21:00,17.8,3.6,30.05,NNE,15,0.0,1.0,53,0.00,,,0.00,LWC V2.00 B2112,2013-03-18 23:21:00,
2013-03-18 15:26:00,17.8,3.2,30.04,WNW,291,0.0,3.0,52,0.00,,,0.00,LWC V2.00 B2112,2013-03-18 23:26:00,
2013-03-18 15:31:00,17.2,2.6,30.04,WNW,297,0.0,2.0,52,0.00,,,0.00,LWC V2.00 B2112,2013-03-18 23:31:00,
2013-03-18 15:36:00,17.3,3.1,30.04,WNW,297,0.0,0.0,53,0.00,,,0.00,LWC V2.00 B2112,2013-03-18 23:36:00,
2013-03-18 15:41:00,17.4,3.2,30.04,WNW,297,0.0,2.0,53,0.00,,,0.00,LWC V2.00 B2112,2013-03-18 23:41:00,
2013-03-18 15:46:00,17.3,2.7,30.04,WNW,294,2.0,3.0,52,0.00,,,0.00,LWC V2.00 B2112,2013-03-18 23:46:00,
2013-03-18 15:51:00,17.1,2.5,30.04,WNW,295,0.0,0.0,52,0.00,,,0.00,LWC V2.00 B2112,2013-03-18 23:51:00,
2013-03-18 15:56:00,17.7,3.5,30.04,WNW,297,0.0,1.0,53,0.00,,,0.00,LWC V2.00 B2112,2013-03-18 23:56:00,
2013-03-18 16:01:00,18.2,3.6,30.04,North,351,0.0,2.0,52,0.00,,,0.00,LWC V2.00 B2112,2013-03-19 00:01:00,
2013-03-18 16:06:00,18.5,3.4,30.04,NNW,327,0.0,1.0,51,0.00,,,0.00,LWC V2.00 B2112,2013-03-19 00:06:00,
2013-03-18 16:11:00,18.6,3.5,30.04,North,359,0.0,0.0,51,0.00,,,0.00,LWC V2.00 B2112,2013-03-19 00:11:00,
2013-03-18 16:16:00,18.7,3.6,30.04,North,358,0.0,2.0,51,0.00,,,0.00,LWC V2.00 B2112,2013-03-19 00:16:00,
2013-03-18 16:21:00,18.8,3.7,30.03,North,358,0.0,0.0,51,0.00,,,0.00,LWC V2.00 B2112,2013-03-19 00:21:00,
2013-03-18 16:26:00,18.6,3.5,30.03,WNW,300,0.0,1.0,51,0.00,,,0.00,LWC V2.00 B2112,2013-03-19 00:26:00,
2013-03-18 16:31:00,18.5,3.4,30.03,WNW,300,0.0,0.0,51,0.00,,,0.00,LWC V2.00 B2112,2013-03-19 00:31:00,
2013-03-18 16:36:00,18.5,3.4,30.03,NNW,328,0.0,1.0,51,0.00,,,0.00,LWC V2.00 B2112,2013-03-19 00:36:00,
2013-03-18 16:41:00,18.5,3.4,30.03,NNW,327,0.0,2.0,51,0.00,,,0.00,LWC V2.00 B2112,2013-03-19 00:41:00,
2013-03-18 16:46:00,18.5,3.4,30.03,NNW,327,0.0,1.0,51,0.00,,,0.00,LWC V2.00 B2112,2013-03-19 00:46:00,
2013-03-18 16:51:00,18.7,3.6,30.03,NNW,327,0.0,0.0,51,0.00,,,0.00,LWC V2.00 B2112,2013-03-19 00:51:00,
2013-03-18 16:56:00,19.1,3.6,30.03,NNW,327,0.0,0.0,50,0.00,,,0.00,LWC V2.00 B2112,2013-03-19 00:56:00,
2013-03-18 17:01:00,19.5,3.9,30.03,SSE,148,0.0,0.0,50,0.00,,,0.00,LWC V2.00 B2112,2013-03-19 01:01:00,
2013-03-18 17:06:00,19.7,4.1,30.03,SE,146,0.0,1.0,50,0.00,,,0.00,LWC V2.00 B2112,2013-03-19 01:06:00,
2013-03-18 17:11:00,20.0,3.9,30.03,NE,48,0.0,0.0,49,0.00,,,0.00,LWC V2.00 B2112,2013-03-19 01:11:00,
2013-03-18 17:16:00,20.4,4.3,30.03,NE,48,0.0,0.0,49,0.00,,,0.00,LWC V2.00 B2112,2013-03-19 01:16:00,
2013-03-18 17:21:00,20.3,4.2,30.03,NNW,328,0.0,0.0,49,0.00,,,0.00,LWC V2.00 B2112,2013-03-19 01:21:00,
2013-03-18 17:26:00,20.1,4.0,30.03,NNW,328,0.0,0.0,49,0.00,,,0.00,LWC V2.00 B2112,2013-03-19 01:26:00,
2013-03-18 17:31:00,20.6,4.5,30.03,NW,325,0.0,1.0,49,0.00,,,0.00,LWC V2.00 B2112,2013-03-19 01:31:00,
2013-03-18 17:36:00,20.7,4.6,30.03,NW,326,0.0,0.0,49,0.00,,,0.00,LWC V2.00 B2112,2013-03-19 01:36:00,
2013-03-18 17:41:00,20.4,4.3,30.03,NW,326,0.0,0.0,49,0.00,,,0.00,LWC V2.00 B2112,2013-03-19 01:41:00,
2013-03-18 17:46:00,20.2,4.1,30.03,WNW,295,0.0,3.0,49,0.00,,,0.00,LWC V2.00 B2112,2013-03-19 01:46:00,
2013-03-18 17:51:00,19.7,4.1,30.03,WNW,294,0.0,0.0,50,0.00,,,0.00,LWC V2.00 B2112,2013-03-19 01:51:00,
2013-03-18 17:56:00,19.7,4.1,30.03,WNW,294,0.0,0.0,50,0.00,,,0.00,LWC V2.00 B2112,2013-03-19 01:56:00,
2013-03-18 18:01:00,19.7,4.5,30.03,WNW,294,0.0,0.0,51,0.00,,,0.00,LWC V2.00 B2112,2013-03-19 02:01:00,
2013-03-18 18:06:00,19.5,3.9,30.03,WNW,294,0.0,0.0,50,0.00,,,0.00,LWC V2.00 B2112,2013-03-19 02:06:00,
2013-03-18 18:11:00,19.2,3.6,30.03,WNW,295,0.0,0.0,50,0.00,,,0.00,LWC V2.00 B2112,2013-03-19 02:11:00,
2013-03-18 18:16:00,19.0,3.5,30.03,WNW,295,0.0,0.0,50,0.00,,,0.00,LWC V2.00 B2112,2013-03-19 02:16:00,
2013-03-18 18:21:00,18.8,3.7,30.03,WNW,297,0.0,0.0,51,0.00,,,0.00,LWC V2.00 B2112,2013-03-19 02:21:00,
2013-03-18 18:26:00,18.7,3.6,30.03,WNW,297,0.0,2.0,51,0.00,,,0.00,LWC V2.00 B2112,2013-03-19 02:26:00,
2013-03-18 18:31:00,18.6,3.9,30.03,WNW,297,0.0,0.0,52,0.00,,,0.00,LWC V2.00 B2112,2013-03-19 02:31:00,
2013-03-18 18:36:00,18.4,3.8,30.03,WNW,297,0.0,0.0,52,0.00,,,0.00,LWC V2.00 B2112,2013-03-19 02:36:00,
2013-03-18 18:41:00,18.3,3.7,30.03,WNW,297,0.0,0.0,52,0.00,,,0.00,LWC V2.00 B2112,2013-03-19 02:41:00,
2013-03-18 18:46:00,18.4,3.8,30.03,ENE,66,0.0,0.0,52,0.00,,,0.00,LWC V2.00 B2112,2013-03-19 02:46:00,
2013-03-18 18:51:00,18.5,3.8,30.03,NE,34,0.0,0.0,52,0.00,,,0.00,LWC V2.00 B2112,2013-03-19 02:51:00,
2013-03-18 18:56:00,18.3,3.2,30.03,NE,34,0.0,0.0,51,0.00,,,0.00,LWC V2.00 B2112,2013-03-19 02:56:00,
2013-03-18 19:01:00,18.2,3.6,30.03,NE,34,0.0,0.0,52,0.00,,,0.00,LWC V2.00 B2112,2013-03-19 03:01:00,
2013-03-18 19:06:00,18.0,3.4,30.03,NE,34,0.0,0.0,52,0.00,,,0.00,LWC V2.00 B2112,2013-03-19 03:06:00,
2013-03-18 19:11:00,17.7,3.5,30.03,NE,34,0.0,0.0,53,0.00,,,0.00,LWC V2.00 B2112,2013-03-19 03:11:00,
2013-03-18 19:16:00,17.4,3.2,30.03,NE,34,0.0,0.0,53,0.00,,,0.00,LWC V2.00 B2112,2013-03-19 03:16:00,
2013-03-18 19:21:00,17.3,3.1,30.03,NE,34,0.0,0.0,53,0.00,,,0.00,LWC V2.00 B2112,2013-03-19 03:21:00,
2013-03-18 19:26:00,17.2,3.0,30.03,NE,34,0.0,0.0,53,0.00,,,0.00,LWC V2.00 B2112,2013-03-19 03:26:00,
2013-03-18 19:31:00,17.0,3.3,30.03,NE,34,0.0,0.0,54,0.00,,,0.00,LWC V2.00 B2112,2013-03-19 03:31:00,
2013-03-18 19:36:00,16.5,3.2,30.03,NE,34,0.0,0.0,55,0.00,,,0.00,LWC V2.00 B2112,2013-03-19 03:36:00,
2013-03-18 19:41:00,16.0,3.1,30.03,NE,34,0.0,0.0,56,0.00,,,0.00,LWC V2.00 B2112,2013-03-19 03:41:00,
2013-03-18 19:46:00,15.5,3.0,30.03,NE,34,0.0,0.0,57,0.00,,,0.00,LWC V2.00 B2112,2013-03-19 03:46:00,
2013-03-18 19:51:00,15.0,2.5,30.03,NE,34,0.0,0.0,57,0.00,,,0.00,LWC V2.00 B2112,2013-03-19 03:51:00,
2013-03-18 19:56:00,14.3,1.9,30.04,NE,34,0.0,0.0,57,0.00,,,0.00,LWC V2.00 B2112,2013-03-19 03:56:00,
2013-03-18 20:00:00,13.7,1.3,30.04,NE,34,0.0,0.0,57,0.00,,,0.00,LWC V2.00 B2112,2013-03-19 04:00:00,
2013-03-18 20:01:00,13.4,1.4,30.04,NE,34,0.0,0.0,58,0.00,,,0.00,LWC V2.00 B2112,2013-03-19 04:01:00,
2013-03-18 20:06:00,12.5,0.6,30.04,NE,34,0.0,0.0,58,0.00,,,0.00,LWC V2.00 B2112,2013-03-19 04:06:00,
2013-03-18 20:11:00,11.6,0.1,30.04,NE,34,0.0,0.0,59,0.00,,,0.00,LWC V2.00 B2112,2013-03-19 04:11:00,
2013-03-18 20:16:00,11.1,0.3,30.04,NE,34,0.0,0.0,61,0.00,,,0.00,LWC V2.00 B2112,2013-03-19 04:16:00,
2013-03-18 20:21:00,10.3,-0.4,30.04,NE,34,0.0,0.0,61,0.00,,,0.00,LWC V2.00 B2112,2013-03-19 04:21:00,
2013-03-18 20:26:00,9.5,-0.9,30.04,NE,44,0.0,0.0,62,0.00,,,0.00,LWC V2.00 B2112,2013-03-19 04:26:00,
2013-03-18 20:31:00,8.9,-1.1,30.04,NE,44,0.0,0.0,63,0.00,,,0.00,LWC V2.00 B2112,2013-03-19 04:31:00,
2013-03-18 20:36:00,8.1,-1.9,30.05,NE,44,0.0,0.0,63,0.00,,,0.00,LWC V2.00 B2112,2013-03-19 04:36:00,
2013-03-18 20:41:00,7.4,-1.9,30.04,NE,44,0.0,0.0,65,0.00,,,0.00,LWC V2.00 B2112,2013-03-19 04:41:00,
2013-03-18 20:46:00,6.7,-2.5,30.04,SE,129,0.0,0.0,65,0.00,,,0.00,LWC V2.00 B2112,2013-03-19 04:46:00,
2013-03-18 20:51:00,6.0,-2.9,30.05,SE,129,0.0,0.0,66,0.00,,,0.00,LWC V2.00 B2112,2013-03-19 04:51:00,
2013-03-18 20:56:00,5.7,-2.9,30.04,SE,129,0.0,0.0,67,0.00,,,0.00,LWC V2.00 B2112,2013-03-19 04:56:00,
2013-03-18 21:01:00,5.2,-3.0,30.05,SE,131,0.0,0.0,68,0.00,,,0.00,LWC V2.00 B2112,2013-03-19 05:01:00,
2013-03-18 21:06:00,4.8,-3.4,30.05,SE,131,0.0,0.0,68,0.00,,,0.00,LWC V2.00 B2112,2013-03-19 05:06:00,
2013-03-18 21:11:00,4.6,-3.3,30.05,SE,129,0.0,0.0,69,0.00,,,0.00,LWC V2.00 B2112,2013-03-19 05:11:00,
2013-03-18 21:16:00,4.4,-3.2,30.05,SE,131,0.0,0.0,70,0.00,,,0.00,LWC V2.00 B2112,2013-03-19 05:16:00,
2013-03-18 21:21:00,3.6,-4.0,30.05,SE,131,0.0,0.0,70,0.00,,,0.00,LWC V2.00 B2112,2013-03-19 05:21:00,
2013-03-18 21:26:00,2.8,-4.7,30.05,SE,131,0.0,0.0,70,0.00,,,0.00,LWC V2.00 B2112,2013-03-19 05:26:00,
2013-03-18 21:31:00,2.5,-4.7,30.05,SE,131,0.0,0.0,71,0.00,,,0.00,LWC V2.00 B2112,2013-03-19 05:31:00,
2013-03-18 21:36:00,2.4,-4.5,30.05,SE,131,0.0,0.0,72,0.00,,,0.00,LWC V2.00 B2112,2013-03-19 05:36:00,
2013-03-18 21:41:00,2.1,-4.8,30.05,SE,130,0.0,0.0,72,0.00,,,0.00,LWC V2.00 B2112,2013-03-19 05:41:00,
2013-03-18 21:46:00,1.8,-4.8,30.05,SE,130,0.0,0.0,73,0.00,,,0.00,LWC V2.00 B2112,2013-03-19 05:46:00,
2013-03-18 21:51:00,1.7,-4.9,30.06,SE,131,0.0,1.0,73,0.00,,,0.00,LWC V2.00 B2112,2013-03-19 05:51:00,
2013-03-18 21:56:00,1.4,-5.2,30.05,SE,131,0.0,0.0,73,0.00,,,0.00,LWC V2.00 B2112,2013-03-19 05:56:00,
2013-03-18 22:01:00,1.5,-4.8,30.06,SE,131,0.0,0.0,74,0.00,,,0.00,LWC V2.00 B2112,2013-03-19 06:01:00,
2013-03-18 22:06:00,1.8,-4.8,30.06,SE,131,0.0,0.0,73,0.00,,,0.00,LWC V2.00 B2112,2013-03-19 06:06:00,
2013-03-18 22:11:00,1.4,-5.2,30.06,SE,131,0.0,0.0,73,0.00,,,0.00,LWC V2.00 B2112,2013-03-19 06:11:00,
2013-03-18 22:16:00,1.0,-5.6,30.06,SE,131,0.0,0.0,73,0.00,,,0.00,LWC V2.00 B2112,2013-03-19 06:16:00,
2013-03-18 22:21:00,0.9,-5.7,30.06,SE,130,0.0,0.0,73,0.00,,,0.00,LWC V2.00 B2112,2013-03-19 06:21:00,
2013-03-18 22:26:00,0.9,-5.7,30.06,SE,131,0.0,0.0,73,0.00,,,0.00,LWC V2.00 B2112,2013-03-19 06:26:00,
2013-03-18 22:31:00,1.0,-5.6,30.06,SE,131,0.0,0.0,73,0.00,,,0.00,LWC V2.00 B2112,2013-03-19 06:31:00,
2013-03-18 22:36:00,0.7,-5.9,30.06,SE,131,0.0,1.0,73,0.00,,,0.00,LWC V2.00 B2112,2013-03-19 06:36:00,
2013-03-18 22:41:00,1.4,-4.9,30.06,SE,131,0.0,0.0,74,0.00,,,0.00,LWC V2.00 B2112,2013-03-19 06:41:00,
2013-03-18 22:46:00,2.2,-4.2,30.06,SE,131,0.0,0.0,74,0.00,,,0.00,LWC V2.00 B2112,2013-03-19 06:46:00,
2013-03-18 22:51:00,2.2,-4.4,30.06,SE,131,0.0,0.0,73,0.00,,,0.00,LWC V2.00 B2112,2013-03-19 06:51:00,
2013-03-18 22:56:00,2.6,-4.0,30.06,SE,130,0.0,1.0,73,0.00,,,0.00,LWC V2.00 B2112,2013-03-19 06:56:00,
2013-03-18 23:01:00,2.8,-4.1,30.06,SE,130,0.0,0.0,72,0.00,,,0.00,LWC V2.00 B2112,2013-03-19 07:01:00,
2013-03-18 23:06:00,2.7,-4.2,30.06,SE,130,0.0,0.0,72,0.00,,,0.00,LWC V2.00 B2112,2013-03-19 07:06:00,
2013-03-18 23:11:00,2.7,-4.2,30.07,SE,129,0.0,0.0,72,0.00,,,0.00,LWC V2.00 B2112,2013-03-19 07:11:00,
2013-03-18 23:16:00,3.6,-3.4,30.06,SE,129,0.0,0.0,72,0.00,,,0.00,LWC V2.00 B2112,2013-03-19 07:16:00,
2013-03-18 23:21:00,4.6,-2.7,30.07,SE,130,0.0,0.0,71,0.00,,,0.00,LWC V2.00 B2112,2013-03-19 07:21:00,
2013-03-18 23:26:00,5.0,-2.6,30.07,SE,130,0.0,0.0,70,0.00,,,0.00,LWC V2.00 B2112,2013-03-19 07:26:00,
2013-03-18 23:31:00,5.2,-2.7,30.07,SE,129,0.0,0.0,69,0.00,,,0.00,LWC V2.00 B2112,2013-03-19 07:31:00,
2013-03-18 23:36:00,5.1,-3.1,30.07,SE,129,0.0,0.0,68,0.00,,,0.00,LWC V2.00 B2112,2013-03-19 07:36:00,
2013-03-18 23:41:00,5.2,-3.0,30.07,SE,129,0.0,0.0,68,0.00,,,0.00,LWC V2.00 B2112,2013-03-19 07:41:00,
2013-03-18 23:46:00,5.6,-2.6,30.07,SE,130,0.0,0.0,68,0.00,,,0.00,LWC V2.00 B2112,2013-03-19 07:46:00,
2013-03-18 23:51:00,6.0,-2.6,30.07,SE,129,0.0,0.0,67,0.00,,,0.00,LWC V2.00 B2112,2013-03-19 07:51:00,
2013-03-18 23:56:00,6.3,-2.6,30.07,SE,130,0.0,0.0,66,0.00,,,0.00,LWC V2.00 B2112,2013-03-19 07:56:00,